Time;durP1;ratioP1;P1;durP2;ratioP2;P2;SDS_P1;SDS_P2;PMS_P1;PMS_P2;Temp;Humidity;BMP_temperature;BMP_pressure;BME280_temperature;BME280_humidity;BME280_pressure;Samples;Min_cycle;Max_cycle;Signal;HPM_P1;HPM_P2
2024/04/15 00:00:22;;;;;;;5.43;2.30;;;;;;;8.71;87.40;101066.06;5482046;26;19998;-73
2024/04/15 00:02:47;;;;;;;6.32;2.38;;;;;;;8.76;86.93;101070.91;5468936;26;20047;-73
2024/04/15 00:05:13;;;;;;;4.82;2.53;;;;;;;8.79;86.98;101055.25;5466260;26;20475;-75
2024/04/15 00:07:38;;;;;;;6.70;2.30;;;;;;;8.74;87.85;101052.28;5481449;26;20034;-75
2024/04/15 00:10:03;;;;;;;;;;;;;;;8.70;88.67;101042.09;5482821;26;20043;-74
2024/04/15 00:12:29;;;;;;;5.65;2.45;;;;;;;8.60;88.55;101019.03;5480206;26;19936;-74
2024/04/15 00:14:54;;;;;;;5.15;2.40;;;;;;;8.54;90.23;101019.72;5481360;26;19998;-75
2024/04/15 00:17:19;;;;;;;;;;;;;;;8.45;91.56;101018.94;5470229;26;20293;-75
2024/04/15 00:19:45;;;;;;;8.23;2.40;;;;;;;8.40;93.33;101009.75;5472776;26;19930;-74
2024/04/15 00:22:10;;;;;;;4.88;2.58;;;;;;;8.43;93.10;101004.03;5470422;26;20002;-73
2024/04/15 00:24:41;;;;;;;;;;;;;;;8.40;93.47;100997.16;5482588;26;20028;-73
2024/04/15 00:27:07;;;;;;;11.30;2.90;;;;;;;8.43;94.68;101001.34;5480761;26;19960;-73
2024/04/15 00:29:32;;;;;;;7.22;2.50;;;;;;;8.45;96.11;100993.97;5480191;26;20002;-73
2024/04/15 00:31:57;;;;;;;6.18;2.95;;;;;;;8.42;96.32;100981.72;5482539;26;20014;-73
2024/04/15 00:34:23;;;;;;;9.55;3.38;;;;;;;8.45;96.76;100988.59;5481462;26;20017;-74
2024/04/15 00:36:48;;;;;;;5.97;2.90;;;;;;;8.37;98.15;100988.63;5480295;26;20314;-74
2024/04/15 00:39:14;;;;;;;9.35;3.28;;;;;;;8.35;98.97;100986.97;5476858;26;19998;-75
2024/04/15 00:41:39;;;;;;;8.35;3.00;;;;;;;8.31;99.75;100996.38;5481552;26;20014;-75
2024/04/15 00:44:04;;;;;;;6.32;2.88;;;;;;;8.24;100.00;100989.22;5479944;26;20002;-74
2024/04/15 00:46:30;;;;;;;;;;;;;;;8.19;100.00;100971.84;5482813;26;20038;-74
2024/04/15 00:48:55;;;;;;;4.97;2.80;;;;;;;8.24;100.00;100967.78;5468718;26;19932;-74
2024/04/15 00:51:21;;;;;;;9.75;3.30;;;;;;;8.13;100.00;100963.66;5447891;26;19995;-74
2024/04/15 00:53:47;;;;;;;4.72;3.10;;;;;;;8.04;100.00;100958.34;5482034;26;20338;-74
2024/04/15 00:56:15;;;;;;;9.98;3.22;;;;;;;8.06;100.00;100954.66;5413603;26;20002;-74
2024/04/15 00:58:40;;;;;;;7.95;3.70;;;;;;;7.99;100.00;100944.66;5411801;26;20458;-74
2024/04/15 01:01:06;;;;;;;7.90;3.40;;;;;;;7.73;100.00;100940.47;5449075;26;20013;-74
2024/04/15 01:03:31;;;;;;;10.55;3.60;;;;;;;7.78;100.00;100939.94;5419577;26;20025;-74
2024/04/15 01:05:56;;;;;;;;;;;;;;;7.65;100.00;100932.44;5412034;26;20014;-74
2024/04/15 01:08:22;;;;;;;11.43;3.60;;;;;;;7.63;100.00;100933.66;5425250;26;19929;-74
2024/04/15 01:10:47;;;;;;;8.85;3.60;;;;;;;7.63;100.00;100928.28;5480611;26;20009;-74
2024/04/15 01:13:13;;;;;;;5.57;3.85;;;;;;;7.59;100.00;100919.75;5416851;26;19998;-74
2024/04/15 01:15:38;;;;;;;8.73;3.83;;;;;;;7.42;100.00;100911.78;5449080;26;20070;-74
2024/04/15 01:18:04;;;;;;;9.70;3.70;;;;;;;7.46;100.00;100911.44;5477787;26;19998;-74
2024/04/15 01:20:30;;;;;;;9.25;3.70;;;;;;;7.48;100.00;100906.75;5480606;26;20028;-74
2024/04/15 01:22:58;;;;;;;;;;;;;;;7.43;100.00;100892.03;5448943;26;20066;-74
2024/04/15 01:25:24;;;;;;;14.95;3.97;;;;;;;7.43;100.00;100896.56;5447968;26;19924;-73
2024/04/15 01:27:49;;;;;;;8.50;4.32;;;;;;;7.42;100.00;100893.03;5480311;26;20002;-74
2024/04/15 01:30:14;;;;;;;7.45;4.10;;;;;;;7.35;100.00;100888.56;5449228;26;19998;-74
2024/04/15 01:32:42;;;;;;;10.23;4.40;;;;;;;7.37;100.00;100883.88;5479201;26;20028;-74
2024/04/15 01:35:08;;;;;;;8.82;4.63;;;;;;;7.36;100.00;100887.56;5478631;26;21109;-74
2024/04/15 01:37:34;;;;;;;8.27;4.18;;;;;;;7.25;100.00;100873.56;5482309;26;20006;-75
2024/04/15 01:39:59;;;;;;;;;;;;;;;7.28;100.00;100875.03;5483022;26;20014;-74
2024/04/15 01:42:24;;;;;;;9.23;4.57;;;;;;;7.21;100.00;100866.88;5479797;26;19966;-74
2024/04/15 01:44:49;;;;;;;;;;;;;;;7.19;100.00;100873.44;5480747;26;20276;-73
2024/04/15 01:47:15;;;;;;;8.10;4.57;;;;;;;7.07;100.00;100863.06;5480055;26;19931;-74
2024/04/15 01:49:40;;;;;;;;;;;;;;;7.05;100.00;100867.81;5449281;26;20223;-74
2024/04/15 01:52:05;;;;;;;8.03;4.10;;;;;;;6.94;100.00;100866.31;5471169;26;19993;-74
2024/04/15 01:54:33;;;;;;;;;;;;;;;6.95;100.00;100864.47;5480233;26;20005;-73
2024/04/15 01:56:59;;;;;;;7.32;4.47;;;;;;;6.94;100.00;100860.13;5468220;26;19923;-74
2024/04/15 01:59:24;;;;;;;;;;;;;;;6.89;100.00;100863.31;5478876;26;20013;-74
2024/04/15 02:01:50;;;;;;;9.50;4.83;;;;;;;6.81;100.00;100876.72;5469961;26;19930;-74
2024/04/15 02:04:15;;;;;;;;;;;;;;;6.82;100.00;100862.34;5479275;26;20013;-74
2024/04/15 02:06:40;;;;;;;7.67;4.97;;;;;;;6.75;100.00;100862.19;5455621;26;20263;-74
2024/04/15 02:09:06;;;;;;;;;;;;;;;6.65;100.00;100853.53;5474550;26;20257;-74
2024/04/15 02:11:31;;;;;;;9.63;4.93;;;;;;;6.71;100.00;100860.03;5480448;26;20351;-74
2024/04/15 02:13:59;;;;;;;10.43;5.40;;;;;;;6.59;100.00;100852.38;5478318;26;20002;-74
2024/04/15 02:16:25;;;;;;;9.43;6.13;;;;;;;6.66;100.00;100855.22;5479875;26;20044;-74
2024/04/15 02:18:50;;;;;;;;;;;;;;;6.63;100.00;100853.69;5480868;26;20030;-74
2024/04/15 02:21:15;;;;;;;12.07;5.40;;;;;;;6.63;100.00;100842.16;5479191;26;20043;-74
2024/04/15 02:23:40;;;;;;;;;;;;;;;6.57;100.00;100848.19;5480475;26;20021;-72
2024/04/15 02:26:06;;;;;;;9.77;5.40;;;;;;;6.54;100.00;100844.03;5479492;26;20868;-74
2024/04/15 02:28:31;;;;;;;;;;;;;;;6.56;100.00;100841.16;5448392;26;20365;-73
2024/04/15 02:31:00;;;;;;;9.35;5.53;;;;;;;6.49;100.00;100836.53;5480207;26;20029;-73
2024/04/15 02:33:25;;;;;;;10.98;5.47;;;;;;;6.47;100.00;100827.84;5478822;26;20002;-74
2024/04/15 02:35:53;;;;;;;;;;;;;;;6.41;100.00;100828.50;5479095;26;20314;-74
2024/04/15 02:38:18;;;;;;;10.98;5.55;;;;;;;6.32;100.00;100821.50;5480426;26;19931;-73
2024/04/15 02:40:44;;;;;;;;;;;;;;;6.26;100.00;100808.81;5480322;26;20002;-73
2024/04/15 02:43:10;;;;;;;12.45;5.03;;;;;;;6.31;100.00;100811.81;5478956;26;19936;-74
2024/04/15 02:45:35;;;;;;;;;;;;;;;6.21;100.00;100809.34;5480289;26;20022;-73
2024/04/15 02:48:03;;;;;;;10.53;4.90;;;;;;;6.17;100.00;100810.66;5450325;26;20233;-73
2024/04/15 02:50:29;;;;;;;10.10;5.35;;;;;;;6.06;100.00;100814.50;5477348;26;20014;-74
2024/04/15 02:52:54;;;;;;;;;;;;;;;6.01;100.00;100811.50;5481391;26;20376;-73
2024/04/15 02:55:19;;;;;;;9.53;5.20;;;;;;;5.97;100.00;100810.16;5499899;26;19916;-73
2024/04/15 02:57:44;;;;;;;;;;;;;;;5.91;100.00;100803.66;5500812;26;19998;-74
2024/04/15 03:00:10;;;;;;;11.87;4.93;;;;;;;5.94;100.00;100794.44;5502010;26;19931;-73
2024/04/15 03:02:35;;;;;;;;;;;;;;;6.05;100.00;100796.81;5501917;26;20002;-74
2024/04/15 03:05:01;;;;;;;10.57;5.30;;;;;;;6.01;100.00;100795.47;5489201;26;20362;-73
2024/04/15 03:07:26;;;;;;;;;;;;;;;6.15;100.00;100791.28;5483292;26;20326;-74
2024/04/15 03:09:53;;;;;;;9.60;5.10;;;;;;;6.27;100.00;100786.44;5480435;26;19924;-73
2024/04/15 03:12:18;;;;;;;11.68;5.50;;;;;;;6.31;100.00;100785.91;5450673;26;20224;-73
2024/04/15 03:14:43;;;;;;;;;;;;;;;6.34;100.00;100787.44;5483932;26;20338;-74
2024/04/15 03:17:09;;;;;;;14.60;5.87;;;;;;;6.36;100.00;100783.56;5474671;26;19960;-72
2024/04/15 03:19:36;;;;;;;;;;;;;;;6.40;100.00;100781.38;5450688;26;20013;-72
2024/04/15 03:22:01;;;;;;;;;;;;;;;6.46;100.00;100775.34;5483571;26;19931;-72
2024/04/15 03:24:29;;;;;;;10.90;5.68;;;;;;;6.58;100.00;100774.97;5484205;26;19945;-72
2024/04/15 03:26:54;;;;;;;12.32;6.28;;;;;;;6.64;100.00;100769.75;5470950;26;20115;-73
2024/04/15 03:29:20;;;;;;;;;;;;;;;6.63;100.00;100772.63;5482786;26;20002;-72
2024/04/15 03:31:45;;;;;;;10.83;5.53;;;;;;;6.62;100.00;100766.41;5473991;26;22685;-72
2024/04/15 03:34:10;;;;;;;;;;;;;;;6.70;100.00;100762.91;5480986;26;20360;-73
2024/04/15 03:36:36;;;;;;;15.85;5.80;;;;;;;6.68;100.00;100759.56;5483401;26;20352;-73
2024/04/15 03:39:01;;;;;;;;;;;;;;;6.74;100.00;100756.19;5482962;26;20010;-74
2024/04/15 03:41:32;;;;;;;11.60;5.80;;;;;;;6.68;100.00;100748.88;5482477;26;19927;-72
2024/04/15 03:43:57;;;;;;;10.02;6.00;;;;;;;6.76;100.00;100746.13;5482127;26;20422;-73
2024/04/15 03:46:22;;;;;;;;;;;;;;;6.78;100.00;100746.81;5482785;26;20010;-72
2024/04/15 03:48:48;;;;;;;10.52;5.82;;;;;;;6.76;100.00;100739.97;5482070;26;19923;-73
2024/04/15 03:51:13;;;;;;;;;;;;;;;6.75;100.00;100736.44;5482918;26;20013;-72
2024/04/15 03:53:41;;;;;;;15.67;6.63;;;;;;;6.73;100.00;100735.78;5482005;26;20270;-75
2024/04/15 03:56:07;;;;;;;16.48;6.80;;;;;;;6.73;100.00;100727.75;5482164;26;19998;-73
2024/04/15 03:58:32;;;;;;;;;;;;;;;6.79;100.00;100723.56;5482764;26;20030;-73
2024/04/15 04:01:03;;;;;;;10.20;5.83;;;;;;;6.71;100.00;100721.75;5482967;26;19923;-74
2024/04/15 04:03:28;;;;;;;11.10;6.20;;;;;;;6.76;100.00;100719.38;5481655;26;20016;-73
2024/04/15 04:05:56;;;;;;;;;;;;;;;6.73;100.00;100713.56;5482860;26;20002;-73
2024/04/15 04:08:22;;;;;;;10.93;6.43;;;;;;;6.69;100.00;100705.06;5480566;26;19932;-73
2024/04/15 04:10:47;;;;;;;;;;;;;;;6.60;100.00;100708.75;5481299;26;20042;-74
2024/04/15 04:13:13;;;;;;;11.98;6.68;;;;;;;6.57;100.00;100701.09;5481419;26;20259;-74
2024/04/15 04:15:38;;;;;;;;;;;;;;;6.50;100.00;100691.09;5483222;26;20009;-74
2024/04/15 04:18:04;;;;;;;13.60;6.20;;;;;;;6.44;100.00;100694.47;5448533;26;19935;-73
2024/04/15 04:20:30;;;;;;;15.10;6.45;;;;;;;6.44;100.00;100699.81;5481060;26;20002;-73
2024/04/15 04:22:55;;;;;;;;;;;;;;;6.42;100.00;100691.13;5482158;26;20444;-74
2024/04/15 04:25:24;;;;;;;14.90;6.93;;;;;;;6.41;100.00;100689.47;5461541;26;19924;-74
2024/04/15 04:27:49;;;;;;;13.63;6.60;;;;;;;6.40;100.00;100679.75;5444592;26;20018;-72
2024/04/15 04:30:15;;;;;;;;;;;;;;;6.38;100.00;100681.78;5433954;26;20014;-72
2024/04/15 04:32:40;;;;;;;;;;;;;;;6.40;100.00;100682.44;5435997;26;19936;-73
2024/04/15 04:35:06;;;;;;;;;;;;;;;6.41;100.00;100668.06;5444631;26;19943;-73
2024/04/15 04:37:31;;;;;;;;;;;;;;;6.36;100.00;100665.91;5467097;26;19924;-74
2024/04/15 04:39:57;;;;;;;;;;;;;;;6.37;100.00;100662.25;5482714;26;19931;-73
2024/04/15 04:42:22;;;;;;;;;;;;;;;6.33;100.00;100657.41;5482034;26;20001;-72
2024/04/15 04:44:47;;;;;;;;;;;;;;;6.33;100.00;100655.56;5483118;26;19952;-72
2024/04/15 04:47:14;;;;;;;;;;;;;;;6.28;100.00;100649.09;5432237;26;20304;-72
2024/04/15 04:49:39;;;;;;;;;;;;;;;6.31;100.00;100657.56;5470645;26;19931;-72
2024/04/15 04:52:07;;;;;;;;;;;;;;;6.33;100.00;100655.56;5480354;26;19924;-73
2024/04/15 04:54:32;;;;;;;;;;;;;;;6.36;100.00;100643.69;5470852;26;19931;-73
2024/04/15 04:57:00;;;;;;;;;;;;;;;6.36;100.00;100639.19;5480358;26;19948;-72
2024/04/15 04:59:26;;;;;;;;;;;;;;;6.46;100.00;100641.66;5470743;26;19932;-73
2024/04/15 05:01:51;;;;;;;;;;;;;;;6.40;100.00;100633.50;5483033;26;19992;-73
2024/04/15 05:04:19;;;;;;;;;;;;;;;6.51;100.00;100633.09;5481369;26;19924;-72
2024/04/15 05:06:44;;;;;;;;;;;;;;;6.56;100.00;100633.41;5482103;26;19931;-72
2024/04/15 05:09:09;;;;;;;;;;;;;;;6.56;100.00;100627.19;5483933;26;19924;-72
2024/04/15 05:11:35;;;;;;;;;;;;;;;6.54;100.00;100627.38;5480906;26;19931;-73
2024/04/15 05:14:00;;;;;;;;;;;;;;;6.61;100.00;100614.16;5482619;26;19936;-72
2024/04/15 05:16:25;;;;;;;;;;;;;;;6.64;100.00;100619.16;5482242;26;19952;-72
2024/04/15 05:18:50;;;;;;;;;;;;;;;6.70;100.00;100602.41;5479682;26;19932;-72
2024/04/15 05:21:17;;;;;;;;;;;;;;;6.57;100.00;100619.03;5482291;26;19931;-72
2024/04/15 05:23:42;;;;;;;;;;;;;;;6.74;100.00;100619.75;5482274;26;19943;-72
2024/04/15 05:26:16;;;;;;;;;;;;;;;6.82;100.00;100613.50;5481257;26;19924;-72
2024/04/15 05:28:41;;;;;;;;;;;;;;;6.94;100.00;100605.88;5481912;26;19931;-73
2024/04/15 05:31:07;;;;;;;;;;;;;;;7.02;100.00;100613.88;5481694;26;19923;-72
2024/04/15 05:33:32;;;;;;;;;;;;;;;7.12;100.00;100617.13;5479369;26;19935;-73
2024/04/15 05:35:58;;;;;;;;;;;;;;;7.34;100.00;100617.28;5482235;26;19924;-72
2024/04/15 05:38:23;;;;;;;;;;;;;;;7.56;99.99;100620.91;5481397;26;19973;-73
2024/04/15 05:40:48;;;;;;;;;;;;;;;7.56;98.84;100602.16;5481113;26;19992;-72
2024/04/15 05:43:14;;;;;;;;;;;;;;;7.49;98.48;100593.19;5479850;26;19928;-72
2024/04/15 05:45:40;;;;;;;;;;;;;;;7.24;99.69;100585.41;5481452;26;19935;-72
2024/04/15 05:48:05;;;;;;;;;;;;;;;7.11;100.00;100594.03;5481245;26;20244;-72
2024/04/15 05:50:33;;;;;;;;;;;;;;;7.25;100.00;100596.94;5472990;26;20347;-72
2024/04/15 05:52:59;;;;;;;;;;;;;;;7.47;100.00;100586.34;5462240;26;19924;-72
2024/04/15 05:55:24;;;;;;;;;;;;;;;7.25;100.00;100599.59;5480032;26;20291;-73
2024/04/15 05:57:49;;;;;;;;;;;;;;;8.05;96.84;100591.88;5468321;26;19931;-73
2024/04/15 06:00:15;;;;;;;;;;;;;;;8.12;95.69;100584.78;5481444;26;19942;-72
2024/04/15 06:02:40;;;;;;;;;;;;;;;8.34;94.12;100599.06;5481708;26;21598;-72
2024/04/15 06:05:05;;;;;;;;;;;;;;;8.56;93.58;100588.41;5480981;26;19924;-72
2024/04/15 06:07:33;;;;;;;;;;;;;;;8.43;93.17;100581.00;5464923;26;19931;-72
2024/04/15 06:09:58;;;;;;;;;;;;;;;8.16;94.18;100590.59;5444059;26;19935;-73
2024/04/15 06:12:25;;;;;;;;;;;;;;;7.67;97.28;100592.84;5444903;26;20364;-73
2024/04/15 06:14:50;;;;;;;;;;;;;;;7.66;98.00;100580.44;5451882;26;19924;-72
2024/04/15 06:17:15;;;;;;;;;;;;;;;7.71;97.92;100572.69;5481404;26;19928;-72
2024/04/15 06:19:41;;;;;;;;;;;;;;;7.67;98.10;100574.06;5472554;26;20459;-73
2024/04/15 06:22:06;;;;;;;;;;;;;;;7.63;98.31;100578.13;5449560;26;20339;-73
2024/04/15 06:24:31;;;;;;;;;;;;;;;7.35;99.89;100572.56;5480031;26;20454;-73
2024/04/15 06:26:56;;;;;;;;;;;;;;;7.34;100.00;100582.47;5480698;26;19924;-74
2024/04/15 06:29:23;;;;;;;;;;;;;;;7.50;100.00;100570.72;5480987;26;20413;-73
2024/04/15 06:31:49;;;;;;;;;;;;;;;7.38;100.00;100570.38;5480387;26;19934;-74
2024/04/15 06:34:17;;;;;;;;;;;;;;;7.21;100.00;100555.50;5479971;26;20344;-74
2024/04/15 06:36:42;;;;;;;;;;;;;;;7.43;100.00;100554.56;5460733;26;19931;-74
2024/04/15 06:39:07;;;;;;;;;;;;;;;7.35;100.00;100556.50;5479768;26;19924;-74
2024/04/15 06:41:32;;;;;;;;;;;;;;;7.64;99.13;100553.00;5480760;26;21653;-74
2024/04/15 06:43:58;;;;;;;;;;;;;;;7.66;98.32;100559.03;5469495;26;19968;-74
2024/04/15 06:46:24;;;;;;;;;;;;;;;7.64;98.28;100544.16;5465966;26;20247;-73
2024/04/15 06:48:50;;;;;;;;;;;;;;;7.67;98.13;100558.00;5447230;26;19969;-73
2024/04/15 06:51:15;;;;;;;;;;;;;;;7.39;99.27;100536.38;5450355;26;19936;-74
2024/04/15 06:53:41;;;;;;;;;;;;;;;8.08;97.94;100529.84;5483595;26;19932;-74
2024/04/15 06:56:07;;;;;;;;;;;;;;;9.38;88.76;100539.72;5482767;26;19944;-73
2024/04/15 06:58:32;;;;;;;;;;;;;;;10.87;80.23;100536.53;5452716;26;20343;-73
2024/04/15 07:00:58;;;;;;;;;;;;;;;11.31;77.25;100537.75;5484527;26;19924;-74
2024/04/15 07:03:23;;;;;;;;;;;;;;;12.58;70.30;100531.03;5482995;26;19923;-74
2024/04/15 07:05:48;;;;;;;;;;;;;;;12.74;68.06;100524.28;5483299;26;19930;-73
2024/04/15 07:08:14;;;;;;;;;;;;;;;12.56;66.99;100521.50;5484823;26;19923;-73
2024/04/15 07:10:39;;;;;;;;;;;;;;;14.01;63.37;100520.53;5482515;26;19992;-73
2024/04/15 07:13:05;;;;;;;;;;;;;;;14.63;60.42;100523.00;5484463;26;19924;-72
2024/04/15 07:15:30;;;;;;;;;;;;;;;13.96;59.92;100513.06;5483322;26;20021;-73
2024/04/15 07:17:55;;;;;;;;;;;;;;;14.45;58.12;100514.94;5482904;26;19924;-72
2024/04/15 07:20:21;;;;;;;;;;;;;;;14.33;59.20;100507.59;5484324;26;20029;-72
2024/04/15 07:22:46;;;;;;;;;;;;;;;13.96;60.01;100504.97;5474896;26;19924;-74
2024/04/15 07:25:11;;;;;;;;;;;;;;;15.23;55.76;100510.34;5482953;26;19930;-73
2024/04/15 07:27:39;;;;;;;;;;;;;;;15.42;55.54;100492.06;5483689;26;19952;-73
2024/04/15 07:30:05;;;;;;;;;;;;;;;15.99;52.33;100479.63;5484360;26;19932;-72
2024/04/15 07:32:30;;;;;;;;;;;;;;;13.27;60.01;100461.84;5481914;26;20254;-73
2024/04/15 07:34:58;;;;;;;;;;;;;;;12.80;64.63;100460.44;5483931;26;19931;-73
2024/04/15 07:37:23;;;;;;;;;;;;;;;13.10;63.29;100451.63;5472271;26;19968;-72
2024/04/15 07:39:49;;;;;;;;;;;;;;;14.49;57.16;100467.34;5482304;26;19924;-73
2024/04/15 07:42:14;;;;;;;;;;;;;;;13.35;62.09;100461.56;5482829;26;19944;-73
2024/04/15 07:44:40;;;;;;;;;;;;;;;13.85;59.74;100457.03;5483486;26;19931;-73
2024/04/15 07:47:05;;;;;;;;;;;;;;;14.28;58.73;100455.19;5482859;26;19924;-73
2024/04/15 07:49:30;;;;;;;;;;;;;;;12.35;64.29;100447.09;5482993;26;20220;-72
2024/04/15 07:51:56;;;;;;;;;;;;;;;12.76;63.88;100434.91;5484558;26;19930;-73
2024/04/15 07:54:21;;;;;;;;;;;;;;;12.91;61.39;100441.84;5481995;26;19931;-73
2024/04/15 07:56:46;;;;;;;;;;;;;;;12.10;63.63;100429.81;5461441;26;19925;-72
2024/04/15 07:59:11;;;;;;;;;;;;;;;11.67;66.78;100425.06;5475459;26;19931;-73
2024/04/15 08:01:37;;;;;;;;;;;;;;;11.70;65.90;100411.16;5482469;26;19993;-72
2024/04/15 08:04:02;;;;;;;;;;;;;;;12.01;66.36;100411.41;5482455;26;19958;-72
2024/04/15 08:06:27;;;;;;;;;;;;;;;11.64;64.13;100412.84;5482802;26;19924;-72
2024/04/15 08:08:53;;;;;;;;;;;;;;;11.44;67.49;100390.53;5482868;26;19992;-73
2024/04/15 08:11:18;;;;;;;;;;;;;;;11.75;66.96;100395.13;5482202;26;19993;-73
2024/04/15 08:13:44;;;;;;;;;;;;;;;11.01;67.37;100383.84;5482642;26;19936;-74
2024/04/15 08:16:12;;;;;;;;;;;;;;;11.37;67.32;100379.78;5470727;26;19994;-73
2024/04/15 08:18:38;;;;;;;;;;;;;;;11.04;67.78;100375.31;5481629;26;20331;-74
2024/04/15 08:21:03;;;;;;;;;;;;;;;11.26;68.86;100367.81;5463814;26;19924;-74
2024/04/15 08:23:28;;;;;;;;;;;;;;;11.53;66.74;100367.66;5456687;26;19924;-73
2024/04/15 08:25:57;;;;;;;;;;;;;;;11.07;66.14;100343.41;5445096;26;19925;-73
2024/04/15 08:28:22;;;;;;;;;;;;;;;11.11;65.60;100369.94;5458064;26;19930;-74
2024/04/15 08:30:47;;;;;;;;;;;;;;;10.91;67.00;100368.94;5481907;26;19923;-73
2024/04/15 08:33:15;;;;;;;;;;;;;;;10.92;66.46;100367.91;5481155;26;19924;-75
2024/04/15 08:35:40;;;;;;;;;;;;;;;11.07;64.67;100340.72;5447921;26;20332;-74
2024/04/15 08:38:06;;;;;;;;;;;;;;;11.48;63.71;100351.31;5462080;26;19924;-74
2024/04/15 08:40:31;;;;;;;;;;;;;;;10.73;65.93;100350.78;5480755;26;19955;-74
2024/04/15 08:42:56;;;;;;;;;;;;;;;11.23;65.99;100343.97;5480657;26;19924;-74
2024/04/15 08:45:23;;;;;;;;;;;;;;;11.32;66.17;100348.06;5438479;26;20000;-74
2024/04/15 08:47:52;;;;;;;;;;;;;;;11.65;64.20;100338.97;5478798;26;19924;-74
2024/04/15 08:50:19;;;;;;;;;;;;;;;11.84;62.04;100322.88;5479978;26;19931;-74
2024/04/15 08:52:45;;;;;;;;;;;;;;;11.86;62.58;100325.38;5480847;26;19964;-74
2024/04/15 08:55:10;;;;;;;;;;;;;;;11.93;62.88;100310.78;5467403;26;19924;-74
2024/04/15 08:57:35;;;;;;;;;;;;;;;11.34;64.79;100308.25;5480512;26;20336;-74
2024/04/15 09:00:00;;;;;;;;;;;;;;;12.28;62.81;100296.81;5449820;26;19943;-73
2024/04/15 09:02:26;;;;;;;;;;;;;;;12.14;61.88;100298.00;5481256;26;20367;-73
2024/04/15 09:04:51;;;;;;;;;;;;;;;11.61;62.61;100300.03;5447644;26;20362;-73
2024/04/15 09:07:17;;;;;;;;;;;;;;;11.22;63.46;100275.78;5454058;26;20376;-74
2024/04/15 09:09:42;;;;;;;;;;;;;;;11.68;63.04;100268.44;5469146;26;20336;-75
2024/04/15 09:12:07;;;;;;;;;;;;;;;11.93;62.05;100269.50;5480985;26;19924;-74
2024/04/15 09:14:39;;;;;;;;;;;;;;;12.25;60.08;100256.78;5480717;26;19935;-74
2024/04/15 09:17:04;;;;;;;;;;;;;;;11.61;62.49;100246.09;5465768;26;20323;-73
2024/04/15 09:19:29;;;;;;;;;;;;;;;11.69;61.73;100263.88;5425268;26;20008;-72
2024/04/15 09:22:01;;;;;;;;;;;;;;;11.71;62.15;100250.16;5433327;26;19924;-73
2024/04/15 09:24:32;;;;;;;;;;;;;;;12.59;59.73;100242.94;5472639;26;19931;-73
2024/04/15 09:26:57;;;;;;;;;;;;;;;12.57;60.23;100240.44;5462547;26;20348;-73
2024/04/15 09:29:23;;;;;;;;;;;;;;;12.59;56.60;100240.25;5479281;26;19992;-73
2024/04/15 09:31:48;;;;;;;;;;;;;;;12.88;56.73;100235.91;5450511;26;19944;-73
2024/04/15 09:34:13;;;;;;;;;;;;;;;12.77;57.07;100230.47;5472959;26;20351;-73
2024/04/15 09:36:42;;;;;;;;;;;;;;;14.24;52.27;100220.09;5444745;26;20346;-73
2024/04/15 09:39:10;;;;;;;;;;;;;;;14.41;51.48;100200.41;5458286;26;19960;-73
2024/04/15 09:41:36;;;;;;;;;;;;;;;14.44;51.59;100208.06;5478049;26;19931;-73
2024/04/15 09:44:01;;;;;;;;;;;;;;;13.90;52.49;100202.84;5469245;26;19940;-73
2024/04/15 09:46:31;;;;;;;;;;;;;;;13.47;54.29;100194.78;5434356;26;20192;-72
2024/04/15 09:48:57;;;;;;;;;;;;;;;13.91;54.24;100186.34;5477128;26;20236;-73
2024/04/15 09:51:23;;;;;;;;;;;;;;;13.84;54.26;100169.44;5480052;26;19936;-73
2024/04/15 09:53:54;;;;;;;;;;;;;;;13.49;54.79;100181.06;5478491;26;20604;-73
2024/04/15 09:56:23;;;;;;;;;;;;;;;13.37;55.98;100167.47;5479797;26;19924;-73
2024/04/15 09:58:48;;;;;;;;;;;;;;;13.82;55.39;100165.28;5443274;26;19993;-73
2024/04/15 10:01:16;;;;;;;;;;;;;;;13.79;55.16;100124.13;5438406;26;19952;-73
2024/04/15 10:03:41;;;;;;;;;;;;;;;14.54;52.45;100134.34;5477754;26;19924;-73
2024/04/15 10:06:07;;;;;;;;;;;;;;;13.58;53.96;100136.38;5479994;26;19938;-73
2024/04/15 10:08:32;;;;;;;;;;;;;;;13.85;53.53;100127.78;5447020;26;19931;-74
2024/04/15 10:10:57;;;;;;;;;;;;;;;13.83;51.40;100112.84;5410734;26;19933;-73
2024/04/15 10:13:23;;;;;;;;;;;;;;;13.32;51.58;100078.97;5433077;26;20328;-73
2024/04/15 10:15:48;;;;;;;;;;;;;;;13.68;53.41;100080.88;5426239;26;20341;-73
2024/04/15 10:18:14;;;;;;;;;;;;;;;13.43;52.06;100079.22;5421718;26;20028;-73
2024/04/15 10:20:40;;;;;;;;;;;;;;;13.44;51.81;100068.16;5478000;26;19932;-73
2024/04/15 10:23:09;;;;;;;;;;;;;;;13.15;51.81;100065.31;5479213;26;19992;-73
2024/04/15 10:25:35;;;;;;;;;;;;;;;13.07;52.71;100070.25;5478704;26;19988;-73
2024/04/15 10:28:00;;;;;;;;;;;;;;;13.29;51.13;100071.34;5474483;26;20368;-73
2024/04/15 10:30:29;;;;;;;;;;;;;;;13.05;51.43;100059.69;5478500;26;19923;-73
2024/04/15 10:33:04;;;;;;;;;;;;;;;13.68;52.34;100051.94;5456827;26;19932;-73
2024/04/15 10:35:31;;;;;;;;;;;;;;;14.32;49.51;100042.13;5427697;26;19931;-72
2024/04/15 10:37:59;;;;;;;;;;;;;;;13.99;49.46;100027.41;5424443;26;19989;-72
2024/04/15 10:40:34;;;;;;;;;;;;;;;13.14;50.69;100000.72;5479135;26;19932;-71
2024/04/15 10:42:59;;;;;;;;;;;;;;;13.25;52.79;100035.00;5479440;26;19936;-74
2024/04/15 10:45:26;;;;;;;;;;;;;;;13.89;51.54;100025.31;5479354;26;19946;-72
2024/04/15 10:47:51;;;;;;;;;;;;;;;13.58;52.42;100024.69;5469403;26;19924;-72
2024/04/15 10:50:16;;;;;;;;;;;;;;;13.29;54.11;99992.09;5466437;26;19930;-72
2024/04/15 10:52:41;;;;;;;;;;;;;;;12.99;52.76;100012.78;5471751;26;19936;-73
2024/04/15 10:55:07;;;;;;;;;;;;;;;12.89;51.75;99974.72;5453317;26;19931;-73
2024/04/15 10:57:32;;;;;;;;;;;;;;;12.70;53.72;99984.81;5470621;26;19932;-73
2024/04/15 10:59:58;;;;;;;;;;;;;;;12.36;52.97;99952.94;5449658;26;19965;-73
2024/04/15 11:02:23;;;;;;;;;;;;;;;11.95;55.75;99958.06;5452176;26;19936;-73
2024/04/15 11:04:48;;;;;;;;;;;;;;;11.95;57.07;99944.56;5446977;26;19955;-72
2024/04/15 11:07:16;;;;;;;;;;;;;;;11.71;59.74;99937.41;5449094;26;19986;-71
2024/04/15 11:09:41;;;;;;;;;;;;;;;11.68;62.67;99931.41;5471856;26;19916;-73
2024/04/15 11:12:07;;;;;;;;;;;;;;;11.91;61.13;99918.28;5481721;26;19924;-72
2024/04/15 11:14:32;;;;;;;;;;;;;;;11.87;60.18;99901.72;5433217;26;20425;-72
2024/04/15 11:16:57;;;;;;;;;;;;;;;11.89;59.11;99874.53;5446399;26;19932;-72
2024/04/15 11:19:23;;;;;;;;;;;;;;;11.59;57.53;99865.41;5479799;26;20258;-73
2024/04/15 11:21:48;;;;;;;;;;;;;;;11.61;58.10;99857.91;5479569;26;20240;-72
2024/04/15 11:24:13;;;;;;;;;;;;;;;11.74;57.95;99850.69;5445090;26;19924;-73
2024/04/15 11:26:39;;;;;;;;;;;;;;;11.61;60.64;99841.75;5440600;26;19932;-72
2024/04/15 11:29:07;;;;;;;;;;;;;;;11.30;62.29;99851.66;5478528;26;19931;-73
2024/04/15 11:31:32;;;;;;;;;;;;;;;11.12;65.09;99836.34;5421981;26;19960;-73
2024/04/15 11:33:58;;;;;;;;;;;;;;;11.14;67.12;99830.72;5439750;26;19924;-72
2024/04/15 11:36:23;;;;;;;;;;;;;;;10.97;67.80;99847.50;5450391;26;19952;-72
2024/04/15 11:38:48;;;;;;;;;;;;;;;10.86;67.59;99824.03;5449371;26;19936;-72
2024/04/15 11:41:14;;;;;;;;;;;;;;;10.60;68.33;99823.25;5481184;26;19924;-72
2024/04/15 11:43:40;;;;;;;;;;;;;;;10.52;71.50;99821.66;5482715;26;19931;-72
2024/04/15 11:46:05;;;;;;;;;;;;;;;10.43;73.39;99813.06;5470954;26;19924;-73
2024/04/15 11:48:30;;;;;;;;;;;;;;;10.42;75.36;99805.22;5480858;26;19992;-72
2024/04/15 11:50:56;;;;;;;;;;;;;;;10.07;75.64;99795.75;5448526;26;20420;-72
2024/04/15 11:53:24;;;;;;;;;;;;;;;9.80;77.55;99779.84;5480344;26;19924;-72
2024/04/15 11:55:53;;;;;;;;;;;;;;;9.59;81.09;99770.28;5480896;26;20341;-73
2024/04/15 11:58:20;;;;;;;;;;;;;;;9.63;81.50;99758.03;5482594;26;19924;-72
2024/04/15 12:00:45;;;;;;;;;;;;;;;9.73;81.21;99752.19;5481231;26;20271;-72
2024/04/15 12:03:10;;;;;;;;;;;;;;;9.77;82.71;99756.09;5439041;26;19923;-73
2024/04/15 12:05:35;;;;;;;;;;;;;;;9.85;81.27;99765.75;5463058;26;19927;-72
2024/04/15 12:08:01;;;;;;;;;;;;;;;9.92;80.83;99754.94;5480529;26;20436;-72
2024/04/15 12:10:26;;;;;;;;;;;;;;;9.91;81.65;99750.59;5440018;26;20348;-72